Columbus, GA (31998)

10:18 AM EST on December 20, 2014 (GMT -0500)
Greenbriar Subdivision | Change Station
CLOSE
Current Station
Personal Weather Station
Location: Phenix City, AL
Elevation: 374 ft
Nearby Weather Stations

Elev 374 ft 32.49 °N, 85.03 °W | Updated 15 minutes ago

Overcast
Overcast
45.9 °F
Feels Like 46 °F
N
0.0
Wind Variable Wind from NNE

Today
High -- | Low -- °F
--% Chance of Precip.
Yesterday
High -- | Low -- °F
Precip. -- in
7:36 AM 5:38 PM
Waning Crescent, 3% visible
Pressure 30.21 in
Visibility 6.0 miles
Clouds Mostly Cloudy 900 ft
Overcast 2600 ft
Windchill 46 °F
Dew Point 46 °F
Humidity 99%
Rainfall 0.25 in
Snow Depth Not available.
UV 1 out of 12
Pollen .40 out of 12
Air Quality Not available.
Flu Activity Not available.
SPECI KCSG 201515Z 00000KT 6SM BR BKN009 OVC026 08/07 A3021 RMK AO2

More Conditions Fewer Conditions

Pressure 30.21 in
Visibility 6.0 miles
Clouds Mostly Cloudy 900 ft
Overcast 2600 ft
Windchill 46 °F
Dew Point 46 °F
Humidity 99%
Rainfall 0.25 in
Snow Depth Not available.
UV 1 out of 12
Pollen .40 out of 12
Air Quality Not available.
Flu Activity Not available.
SPECI KCSG 201515Z 00000KT 6SM BR BKN009 OVC026 08/07 A3021 RMK AO2

More Conditions Fewer Conditions

10-Day Weather Forecast

Almanac

Astronomy

Dec. 20, 2014 Rise Set
Actual Time
Civil Twilight
Nautical Twilight
Astronomical Twilight
Moon
Length of Visible Light
Length of Day
Tomorrow will be .
, % of the Moon is Illuminated

Today's Extremes

State Highs State Lows

Community

WunderPhotos

Upload Photos

1,779,198 photos uploaded!

WunderBlogs® & News

Nearby

Air Quality

  Air Quality AQ Index Pollutant
Not available.

Snow Depth

Station Depth Elevation

Earthquake Activity

City Distance Mag. Time & Date
Minimum magnitude displayed is 2.5.

Coastal Water Temperatures

Place Temperature

Nearby Weather Stations